sensor_id;sensor_type;location;lat;lon;timestamp;P1;durP1;ratioP1;P2;durP2;ratioP2
6551;SDS011;3309;48.708;9.290;2023-11-19T00:00:10;0.70;;;0.70;;
6551;SDS011;3309;48.708;9.290;2023-11-19T00:02:36;0.60;;;0.60;;
6551;SDS011;3309;48.708;9.290;2023-11-19T00:05:05;0.70;;;0.70;;
6551;SDS011;3309;48.708;9.290;2023-11-19T00:07:34;0.80;;;0.80;;
6551;SDS011;3309;48.708;9.290;2023-11-19T00:10:01;0.77;;;0.77;;
6551;SDS011;3309;48.708;9.290;2023-11-19T00:12:32;0.63;;;0.63;;
6551;SDS011;3309;48.708;9.290;2023-11-19T00:14:57;0.70;;;0.70;;
6551;SDS011;3309;48.708;9.290;2023-11-19T00:17:23;0.80;;;0.80;;
6551;SDS011;3309;48.708;9.290;2023-11-19T00:19:48;0.80;;;0.80;;
6551;SDS011;3309;48.708;9.290;2023-11-19T00:22:16;0.80;;;0.80;;
6551;SDS011;3309;48.708;9.290;2023-11-19T00:24:42;0.70;;;0.70;;
6551;SDS011;3309;48.708;9.290;2023-11-19T00:27:07;0.80;;;0.80;;
6551;SDS011;3309;48.708;9.290;2023-11-19T00:29:33;0.60;;;0.60;;
6551;SDS011;3309;48.708;9.290;2023-11-19T00:31:58;0.67;;;0.67;;
6551;SDS011;3309;48.708;9.290;2023-11-19T00:34:24;0.70;;;0.70;;
6551;SDS011;3309;48.708;9.290;2023-11-19T00:36:49;0.60;;;0.60;;
6551;SDS011;3309;48.708;9.290;2023-11-19T00:39:15;0.60;;;0.60;;
6551;SDS011;3309;48.708;9.290;2023-11-19T00:41:41;0.80;;;0.80;;
6551;SDS011;3309;48.708;9.290;2023-11-19T00:44:06;0.70;;;0.70;;
6551;SDS011;3309;48.708;9.290;2023-11-19T00:46:32;0.70;;;0.70;;
6551;SDS011;3309;48.708;9.290;2023-11-19T00:48:57;0.70;;;0.70;;
6551;SDS011;3309;48.708;9.290;2023-11-19T00:51:24;0.50;;;0.50;;
6551;SDS011;3309;48.708;9.290;2023-11-19T00:53:51;0.60;;;0.60;;
6551;SDS011;3309;48.708;9.290;2023-11-19T00:56:18;0.60;;;0.60;;
6551;SDS011;3309;48.708;9.290;2023-11-19T00:58:44;0.70;;;0.70;;
6551;SDS011;3309;48.708;9.290;2023-11-19T01:01:13;0.60;;;0.60;;
6551;SDS011;3309;48.708;9.290;2023-11-19T01:03:39;0.80;;;0.80;;
6551;SDS011;3309;48.708;9.290;2023-11-19T01:06:05;0.70;;;0.70;;
6551;SDS011;3309;48.708;9.290;2023-11-19T01:08:31;0.70;;;0.70;;
6551;SDS011;3309;48.708;9.290;2023-11-19T01:10:56;0.67;;;0.67;;
6551;SDS011;3309;48.708;9.290;2023-11-19T01:13:22;0.80;;;0.80;;
6551;SDS011;3309;48.708;9.290;2023-11-19T01:15:47;0.80;;;0.80;;
6551;SDS011;3309;48.708;9.290;2023-11-19T01:18:13;0.70;;;0.70;;
6551;SDS011;3309;48.708;9.290;2023-11-19T01:20:38;0.70;;;0.70;;
6551;SDS011;3309;48.708;9.290;2023-11-19T01:23:04;0.70;;;0.70;;
6551;SDS011;3309;48.708;9.290;2023-11-19T01:25:30;0.53;;;0.53;;
6551;SDS011;3309;48.708;9.290;2023-11-19T01:27:55;0.60;;;0.60;;
6551;SDS011;3309;48.708;9.290;2023-11-19T01:30:24;0.70;;;0.70;;
6551;SDS011;3309;48.708;9.290;2023-11-19T01:32:50;0.63;;;0.63;;
6551;SDS011;3309;48.708;9.290;2023-11-19T01:35:15;0.70;;;0.70;;
6551;SDS011;3309;48.708;9.290;2023-11-19T01:37:41;0.73;;;0.73;;
6551;SDS011;3309;48.708;9.290;2023-11-19T01:40:06;0.60;;;0.60;;
6551;SDS011;3309;48.708;9.290;2023-11-19T01:42:36;0.60;;;0.60;;
6551;SDS011;3309;48.708;9.290;2023-11-19T01:45:03;0.60;;;0.60;;
6551;SDS011;3309;48.708;9.290;2023-11-19T01:47:33;0.70;;;0.70;;
6551;SDS011;3309;48.708;9.290;2023-11-19T01:50:01;0.60;;;0.60;;
6551;SDS011;3309;48.708;9.290;2023-11-19T01:52:32;0.70;;;0.70;;
6551;SDS011;3309;48.708;9.290;2023-11-19T01:55:01;0.80;;;0.80;;
6551;SDS011;3309;48.708;9.290;2023-11-19T01:57:28;0.70;;;0.70;;
6551;SDS011;3309;48.708;9.290;2023-11-19T01:59:53;0.60;;;0.60;;
6551;SDS011;3309;48.708;9.290;2023-11-19T02:02:19;0.60;;;0.60;;
6551;SDS011;3309;48.708;9.290;2023-11-19T02:04:46;0.60;;;0.60;;
6551;SDS011;3309;48.708;9.290;2023-11-19T02:07:13;0.60;;;0.60;;
6551;SDS011;3309;48.708;9.290;2023-11-19T02:09:42;0.63;;;0.63;;
6551;SDS011;3309;48.708;9.290;2023-11-19T02:12:07;0.60;;;0.60;;
6551;SDS011;3309;48.708;9.290;2023-11-19T02:14:34;0.50;;;0.50;;
6551;SDS011;3309;48.708;9.290;2023-11-19T02:17:00;0.70;;;0.70;;
6551;SDS011;3309;48.708;9.290;2023-11-19T02:19:25;0.60;;;0.60;;
6551;SDS011;3309;48.708;9.290;2023-11-19T02:21:51;0.53;;;0.53;;
6551;SDS011;3309;48.708;9.290;2023-11-19T02:24:16;0.60;;;0.60;;
6551;SDS011;3309;48.708;9.290;2023-11-19T02:29:25;0.67;;;0.67;;
6551;SDS011;3309;48.708;9.290;2023-11-19T02:31:52;0.70;;;0.70;;
6551;SDS011;3309;48.708;9.290;2023-11-19T02:34:19;0.63;;;0.63;;
6551;SDS011;3309;48.708;9.290;2023-11-19T02:36:46;0.60;;;0.60;;
6551;SDS011;3309;48.708;9.290;2023-11-19T02:39:12;0.60;;;0.60;;
6551;SDS011;3309;48.708;9.290;2023-11-19T02:41:38;0.60;;;0.60;;
6551;SDS011;3309;48.708;9.290;2023-11-19T02:44:05;0.70;;;0.70;;
6551;SDS011;3309;48.708;9.290;2023-11-19T02:46:31;0.60;;;0.60;;
6551;SDS011;3309;48.708;9.290;2023-11-19T02:48:57;0.70;;;0.70;;
6551;SDS011;3309;48.708;9.290;2023-11-19T02:51:22;0.57;;;0.57;;
6551;SDS011;3309;48.708;9.290;2023-11-19T02:53:48;0.60;;;0.60;;
6551;SDS011;3309;48.708;9.290;2023-11-19T02:56:14;0.50;;;0.50;;
6551;SDS011;3309;48.708;9.290;2023-11-19T02:58:50;0.70;;;0.70;;
6551;SDS011;3309;48.708;9.290;2023-11-19T03:01:26;0.70;;;0.70;;
6551;SDS011;3309;48.708;9.290;2023-11-19T03:03:56;0.63;;;0.63;;
6551;SDS011;3309;48.708;9.290;2023-11-19T03:06:22;0.50;;;0.50;;
6551;SDS011;3309;48.708;9.290;2023-11-19T03:08:48;0.60;;;0.60;;
6551;SDS011;3309;48.708;9.290;2023-11-19T03:11:14;0.60;;;0.60;;
6551;SDS011;3309;48.708;9.290;2023-11-19T03:13:40;0.60;;;0.60;;
6551;SDS011;3309;48.708;9.290;2023-11-19T03:16:06;0.57;;;0.57;;
6551;SDS011;3309;48.708;9.290;2023-11-19T03:18:32;0.60;;;0.60;;
6551;SDS011;3309;48.708;9.290;2023-11-19T03:20:58;0.50;;;0.50;;
6551;SDS011;3309;48.708;9.290;2023-11-19T03:23:23;0.50;;;0.50;;
6551;SDS011;3309;48.708;9.290;2023-11-19T03:25:50;0.50;;;0.50;;
6551;SDS011;3309;48.708;9.290;2023-11-19T03:28:15;0.60;;;0.60;;
6551;SDS011;3309;48.708;9.290;2023-11-19T03:30:41;0.70;;;0.70;;
6551;SDS011;3309;48.708;9.290;2023-11-19T03:33:06;0.50;;;0.50;;
6551;SDS011;3309;48.708;9.290;2023-11-19T03:35:32;0.50;;;0.50;;
6551;SDS011;3309;48.708;9.290;2023-11-19T03:37:58;0.67;;;0.67;;
6551;SDS011;3309;48.708;9.290;2023-11-19T03:40:23;0.50;;;0.50;;
6551;SDS011;3309;48.708;9.290;2023-11-19T03:42:50;0.60;;;0.60;;
6551;SDS011;3309;48.708;9.290;2023-11-19T03:45:16;0.50;;;0.50;;
6551;SDS011;3309;48.708;9.290;2023-11-19T03:47:41;0.60;;;0.60;;
6551;SDS011;3309;48.708;9.290;2023-11-19T03:50:07;0.50;;;0.50;;
6551;SDS011;3309;48.708;9.290;2023-11-19T03:52:35;0.60;;;0.60;;
6551;SDS011;3309;48.708;9.290;2023-11-19T03:55:01;0.60;;;0.60;;
6551;SDS011;3309;48.708;9.290;2023-11-19T03:57:28;0.50;;;0.50;;
6551;SDS011;3309;48.708;9.290;2023-11-19T03:59:54;0.60;;;0.60;;
6551;SDS011;3309;48.708;9.290;2023-11-19T04:02:20;0.60;;;0.60;;
6551;SDS011;3309;48.708;9.290;2023-11-19T04:04:46;0.60;;;0.60;;
6551;SDS011;3309;48.708;9.290;2023-11-19T04:07:13;0.50;;;0.50;;
6551;SDS011;3309;48.708;9.290;2023-11-19T04:09:38;0.50;;;0.50;;
6551;SDS011;3309;48.708;9.290;2023-11-19T04:12:04;0.50;;;0.50;;
6551;SDS011;3309;48.708;9.290;2023-11-19T04:14:30;0.50;;;0.50;;
6551;SDS011;3309;48.708;9.290;2023-11-19T04:16:55;0.43;;;0.43;;
6551;SDS011;3309;48.708;9.290;2023-11-19T04:19:21;0.70;;;0.70;;
6551;SDS011;3309;48.708;9.290;2023-11-19T04:21:47;0.63;;;0.63;;
6551;SDS011;3309;48.708;9.290;2023-11-19T04:24:13;0.60;;;0.60;;
6551;SDS011;3309;48.708;9.290;2023-11-19T04:26:45;0.60;;;0.60;;
6551;SDS011;3309;48.708;9.290;2023-11-19T04:29:15;0.70;;;0.70;;
6551;SDS011;3309;48.708;9.290;2023-11-19T04:31:44;0.57;;;0.57;;
6551;SDS011;3309;48.708;9.290;2023-11-19T04:34:10;0.60;;;0.60;;
6551;SDS011;3309;48.708;9.290;2023-11-19T04:36:36;0.60;;;0.60;;
6551;SDS011;3309;48.708;9.290;2023-11-19T04:39:02;0.60;;;0.60;;
6551;SDS011;3309;48.708;9.290;2023-11-19T04:41:44;0.50;;;0.50;;
6551;SDS011;3309;48.708;9.290;2023-11-19T04:44:14;0.60;;;0.60;;
6551;SDS011;3309;48.708;9.290;2023-11-19T04:46:40;0.60;;;0.60;;
6551;SDS011;3309;48.708;9.290;2023-11-19T04:49:08;0.60;;;0.60;;
6551;SDS011;3309;48.708;9.290;2023-11-19T04:51:41;0.60;;;0.60;;
6551;SDS011;3309;48.708;9.290;2023-11-19T04:54:08;0.60;;;0.60;;
6551;SDS011;3309;48.708;9.290;2023-11-19T04:56:34;0.60;;;0.60;;
6551;SDS011;3309;48.708;9.290;2023-11-19T04:59:04;0.57;;;0.57;;
6551;SDS011;3309;48.708;9.290;2023-11-19T05:01:31;0.50;;;0.50;;
6551;SDS011;3309;48.708;9.290;2023-11-19T05:04:00;0.60;;;0.60;;
6551;SDS011;3309;48.708;9.290;2023-11-19T05:06:27;0.70;;;0.70;;
6551;SDS011;3309;48.708;9.290;2023-11-19T05:08:54;0.50;;;0.50;;
6551;SDS011;3309;48.708;9.290;2023-11-19T05:11:20;0.60;;;0.60;;
6551;SDS011;3309;48.708;9.290;2023-11-19T05:13:46;0.60;;;0.60;;
6551;SDS011;3309;48.708;9.290;2023-11-19T05:16:12;0.60;;;0.60;;
6551;SDS011;3309;48.708;9.290;2023-11-19T05:18:40;0.53;;;0.53;;
6551;SDS011;3309;48.708;9.290;2023-11-19T05:21:06;0.70;;;0.70;;
6551;SDS011;3309;48.708;9.290;2023-11-19T05:23:32;0.50;;;0.50;;
6551;SDS011;3309;48.708;9.290;2023-11-19T05:26:01;0.70;;;0.70;;
6551;SDS011;3309;48.708;9.290;2023-11-19T05:28:27;0.60;;;0.60;;
6551;SDS011;3309;48.708;9.290;2023-11-19T05:30:53;0.60;;;0.60;;
6551;SDS011;3309;48.708;9.290;2023-11-19T05:33:18;0.60;;;0.60;;
6551;SDS011;3309;48.708;9.290;2023-11-19T05:35:44;0.70;;;0.70;;
6551;SDS011;3309;48.708;9.290;2023-11-19T05:38:09;0.50;;;0.50;;
6551;SDS011;3309;48.708;9.290;2023-11-19T05:40:35;0.67;;;0.67;;
6551;SDS011;3309;48.708;9.290;2023-11-19T05:43:01;0.60;;;0.60;;
6551;SDS011;3309;48.708;9.290;2023-11-19T05:45:26;0.63;;;0.63;;
6551;SDS011;3309;48.708;9.290;2023-11-19T05:47:52;0.60;;;0.60;;
6551;SDS011;3309;48.708;9.290;2023-11-19T05:50:17;0.57;;;0.57;;
6551;SDS011;3309;48.708;9.290;2023-11-19T05:52:43;0.60;;;0.60;;
6551;SDS011;3309;48.708;9.290;2023-11-19T05:55:09;0.50;;;0.50;;
6551;SDS011;3309;48.708;9.290;2023-11-19T05:57:35;0.40;;;0.40;;
6551;SDS011;3309;48.708;9.290;2023-11-19T06:00:02;0.50;;;0.50;;
6551;SDS011;3309;48.708;9.290;2023-11-19T06:02:32;0.40;;;0.40;;
6551;SDS011;3309;48.708;9.290;2023-11-19T06:04:58;0.60;;;0.60;;
6551;SDS011;3309;48.708;9.290;2023-11-19T06:07:23;0.50;;;0.50;;
6551;SDS011;3309;48.708;9.290;2023-11-19T06:09:50;0.50;;;0.50;;
6551;SDS011;3309;48.708;9.290;2023-11-19T06:12:15;0.50;;;0.50;;
6551;SDS011;3309;48.708;9.290;2023-11-19T06:14:41;0.50;;;0.50;;
6551;SDS011;3309;48.708;9.290;2023-11-19T06:17:06;0.60;;;0.60;;
6551;SDS011;3309;48.708;9.290;2023-11-19T06:19:33;0.60;;;0.60;;
6551;SDS011;3309;48.708;9.290;2023-11-19T06:21:59;0.50;;;0.50;;
6551;SDS011;3309;48.708;9.290;2023-11-19T06:24:24;0.50;;;0.50;;
6551;SDS011;3309;48.708;9.290;2023-11-19T06:26:50;0.50;;;0.50;;
6551;SDS011;3309;48.708;9.290;2023-11-19T06:29:15;0.50;;;0.50;;
6551;SDS011;3309;48.708;9.290;2023-11-19T06:31:44;0.60;;;0.60;;
6551;SDS011;3309;48.708;9.290;2023-11-19T06:34:10;0.60;;;0.60;;
6551;SDS011;3309;48.708;9.290;2023-11-19T06:36:35;0.53;;;0.53;;
6551;SDS011;3309;48.708;9.290;2023-11-19T06:39:01;0.50;;;0.50;;
6551;SDS011;3309;48.708;9.290;2023-11-19T06:41:27;0.50;;;0.50;;
6551;SDS011;3309;48.708;9.290;2023-11-19T06:43:54;0.60;;;0.60;;
6551;SDS011;3309;48.708;9.290;2023-11-19T06:46:19;0.53;;;0.53;;
6551;SDS011;3309;48.708;9.290;2023-11-19T06:48:45;0.50;;;0.50;;
6551;SDS011;3309;48.708;9.290;2023-11-19T06:51:11;0.60;;;0.60;;
6551;SDS011;3309;48.708;9.290;2023-11-19T06:53:37;0.60;;;0.60;;
6551;SDS011;3309;48.708;9.290;2023-11-19T06:56:04;0.60;;;0.60;;
6551;SDS011;3309;48.708;9.290;2023-11-19T06:58:31;0.50;;;0.50;;
6551;SDS011;3309;48.708;9.290;2023-11-19T07:01:00;0.50;;;0.50;;
6551;SDS011;3309;48.708;9.290;2023-11-19T07:03:26;0.50;;;0.50;;
6551;SDS011;3309;48.708;9.290;2023-11-19T07:05:51;0.50;;;0.50;;
6551;SDS011;3309;48.708;9.290;2023-11-19T07:08:17;0.50;;;0.50;;
6551;SDS011;3309;48.708;9.290;2023-11-19T07:10:42;0.60;;;0.60;;
6551;SDS011;3309;48.708;9.290;2023-11-19T07:13:08;0.50;;;0.50;;
6551;SDS011;3309;48.708;9.290;2023-11-19T07:15:34;0.50;;;0.50;;
6551;SDS011;3309;48.708;9.290;2023-11-19T07:18:00;0.50;;;0.50;;
6551;SDS011;3309;48.708;9.290;2023-11-19T07:20:26;0.50;;;0.50;;
6551;SDS011;3309;48.708;9.290;2023-11-19T07:22:52;0.50;;;0.50;;
6551;SDS011;3309;48.708;9.290;2023-11-19T07:25:19;0.60;;;0.60;;
6551;SDS011;3309;48.708;9.290;2023-11-19T07:27:45;0.60;;;0.60;;
6551;SDS011;3309;48.708;9.290;2023-11-19T07:30:13;0.50;;;0.50;;
6551;SDS011;3309;48.708;9.290;2023-11-19T07:32:38;0.50;;;0.50;;
6551;SDS011;3309;48.708;9.290;2023-11-19T07:35:04;0.57;;;0.57;;
6551;SDS011;3309;48.708;9.290;2023-11-19T07:37:30;0.50;;;0.50;;
6551;SDS011;3309;48.708;9.290;2023-11-19T07:39:56;0.50;;;0.50;;
6551;SDS011;3309;48.708;9.290;2023-11-19T07:42:22;0.50;;;0.50;;
6551;SDS011;3309;48.708;9.290;2023-11-19T07:44:48;0.43;;;0.43;;
6551;SDS011;3309;48.708;9.290;2023-11-19T07:47:14;0.50;;;0.50;;
6551;SDS011;3309;48.708;9.290;2023-11-19T07:49:40;0.50;;;0.50;;
6551;SDS011;3309;48.708;9.290;2023-11-19T07:52:05;0.60;;;0.60;;
6551;SDS011;3309;48.708;9.290;2023-11-19T07:54:32;0.50;;;0.50;;
6551;SDS011;3309;48.708;9.290;2023-11-19T07:56:57;0.50;;;0.50;;
6551;SDS011;3309;48.708;9.290;2023-11-19T07:59:23;0.60;;;0.60;;
6551;SDS011;3309;48.708;9.290;2023-11-19T08:01:48;0.47;;;0.47;;
6551;SDS011;3309;48.708;9.290;2023-11-19T08:04:14;0.50;;;0.50;;
6551;SDS011;3309;48.708;9.290;2023-11-19T08:06:39;0.60;;;0.60;;
6551;SDS011;3309;48.708;9.290;2023-11-19T08:09:05;0.50;;;0.50;;
6551;SDS011;3309;48.708;9.290;2023-11-19T08:11:31;0.60;;;0.60;;
6551;SDS011;3309;48.708;9.290;2023-11-19T08:13:57;0.50;;;0.50;;
6551;SDS011;3309;48.708;9.290;2023-11-19T08:16:23;0.60;;;0.60;;
6551;SDS011;3309;48.708;9.290;2023-11-19T08:18:49;0.50;;;0.50;;
6551;SDS011;3309;48.708;9.290;2023-11-19T08:21:14;0.40;;;0.40;;
6551;SDS011;3309;48.708;9.290;2023-11-19T08:23:40;0.57;;;0.57;;
6551;SDS011;3309;48.708;9.290;2023-11-19T08:26:05;0.50;;;0.50;;
6551;SDS011;3309;48.708;9.290;2023-11-19T08:28:31;0.40;;;0.40;;
6551;SDS011;3309;48.708;9.290;2023-11-19T08:30:59;0.40;;;0.40;;
6551;SDS011;3309;48.708;9.290;2023-11-19T08:33:24;0.40;;;0.40;;
6551;SDS011;3309;48.708;9.290;2023-11-19T08:35:51;0.53;;;0.53;;
6551;SDS011;3309;48.708;9.290;2023-11-19T08:38:16;0.50;;;0.50;;
6551;SDS011;3309;48.708;9.290;2023-11-19T08:40:42;0.50;;;0.50;;
6551;SDS011;3309;48.708;9.290;2023-11-19T08:43:07;0.50;;;0.50;;
6551;SDS011;3309;48.708;9.290;2023-11-19T08:45:33;0.40;;;0.40;;
6551;SDS011;3309;48.708;9.290;2023-11-19T08:47:58;0.40;;;0.40;;
6551;SDS011;3309;48.708;9.290;2023-11-19T08:50:24;0.40;;;0.40;;
6551;SDS011;3309;48.708;9.290;2023-11-19T08:52:49;0.40;;;0.40;;
6551;SDS011;3309;48.708;9.290;2023-11-19T08:55:15;0.47;;;0.47;;
6551;SDS011;3309;48.708;9.290;2023-11-19T08:57:41;0.40;;;0.40;;
6551;SDS011;3309;48.708;9.290;2023-11-19T09:00:07;0.40;;;0.40;;
6551;SDS011;3309;48.708;9.290;2023-11-19T09:02:36;0.50;;;0.50;;
6551;SDS011;3309;48.708;9.290;2023-11-19T09:05:04;0.50;;;0.50;;
6551;SDS011;3309;48.708;9.290;2023-11-19T09:07:31;0.50;;;0.50;;
6551;SDS011;3309;48.708;9.290;2023-11-19T09:09:57;0.50;;;0.50;;
6551;SDS011;3309;48.708;9.290;2023-11-19T09:12:24;0.50;;;0.50;;
6551;SDS011;3309;48.708;9.290;2023-11-19T09:14:50;0.50;;;0.50;;
6551;SDS011;3309;48.708;9.290;2023-11-19T09:17:16;0.50;;;0.50;;
6551;SDS011;3309;48.708;9.290;2023-11-19T09:19:43;0.50;;;0.50;;
6551;SDS011;3309;48.708;9.290;2023-11-19T09:22:08;0.60;;;0.60;;
6551;SDS011;3309;48.708;9.290;2023-11-19T09:24:34;0.53;;;0.53;;
6551;SDS011;3309;48.708;9.290;2023-11-19T09:26:59;0.50;;;0.50;;
6551;SDS011;3309;48.708;9.290;2023-11-19T09:29:25;0.50;;;0.50;;
6551;SDS011;3309;48.708;9.290;2023-11-19T09:31:50;0.50;;;0.50;;
6551;SDS011;3309;48.708;9.290;2023-11-19T09:34:16;0.50;;;0.50;;
6551;SDS011;3309;48.708;9.290;2023-11-19T09:36:42;0.60;;;0.60;;
6551;SDS011;3309;48.708;9.290;2023-11-19T09:39:09;0.50;;;0.50;;
6551;SDS011;3309;48.708;9.290;2023-11-19T09:41:40;0.50;;;0.50;;
6551;SDS011;3309;48.708;9.290;2023-11-19T09:44:06;0.50;;;0.50;;
6551;SDS011;3309;48.708;9.290;2023-11-19T09:46:33;0.60;;;0.60;;
6551;SDS011;3309;48.708;9.290;2023-11-19T09:48:59;0.60;;;0.60;;
6551;SDS011;3309;48.708;9.290;2023-11-19T09:51:27;0.50;;;0.50;;
6551;SDS011;3309;48.708;9.290;2023-11-19T09:53:53;0.50;;;0.50;;
6551;SDS011;3309;48.708;9.290;2023-11-19T09:56:19;0.50;;;0.50;;
6551;SDS011;3309;48.708;9.290;2023-11-19T09:58:44;0.47;;;0.47;;
6551;SDS011;3309;48.708;9.290;2023-11-19T10:01:10;0.37;;;0.37;;
6551;SDS011;3309;48.708;9.290;2023-11-19T10:03:37;0.40;;;0.40;;
6551;SDS011;3309;48.708;9.290;2023-11-19T10:06:08;0.40;;;0.40;;
6551;SDS011;3309;48.708;9.290;2023-11-19T10:08:36;0.40;;;0.40;;
6551;SDS011;3309;48.708;9.290;2023-11-19T10:11:04;0.30;;;0.30;;
6551;SDS011;3309;48.708;9.290;2023-11-19T10:13:35;0.40;;;0.40;;
6551;SDS011;3309;48.708;9.290;2023-11-19T10:16:04;0.40;;;0.40;;
6551;SDS011;3309;48.708;9.290;2023-11-19T10:18:33;0.50;;;0.50;;
6551;SDS011;3309;48.708;9.290;2023-11-19T10:21:03;0.43;;;0.43;;
6551;SDS011;3309;48.708;9.290;2023-11-19T10:23:29;0.50;;;0.50;;
6551;SDS011;3309;48.708;9.290;2023-11-19T10:26:01;0.30;;;0.30;;
6551;SDS011;3309;48.708;9.290;2023-11-19T10:28:37;0.40;;;0.40;;
6551;SDS011;3309;48.708;9.290;2023-11-19T10:31:05;0.33;;;0.33;;
6551;SDS011;3309;48.708;9.290;2023-11-19T10:33:31;0.40;;;0.40;;
6551;SDS011;3309;48.708;9.290;2023-11-19T10:35:57;0.30;;;0.30;;
6551;SDS011;3309;48.708;9.290;2023-11-19T10:38:23;0.40;;;0.40;;
6551;SDS011;3309;48.708;9.290;2023-11-19T10:40:53;0.50;;;0.50;;
6551;SDS011;3309;48.708;9.290;2023-11-19T10:43:21;0.47;;;0.47;;
6551;SDS011;3309;48.708;9.290;2023-11-19T10:45:48;0.40;;;0.40;;
6551;SDS011;3309;48.708;9.290;2023-11-19T10:48:14;0.50;;;0.50;;
6551;SDS011;3309;48.708;9.290;2023-11-19T10:50:40;0.47;;;0.47;;
6551;SDS011;3309;48.708;9.290;2023-11-19T10:53:08;0.40;;;0.40;;
6551;SDS011;3309;48.708;9.290;2023-11-19T10:55:36;0.40;;;0.40;;
6551;SDS011;3309;48.708;9.290;2023-11-19T10:58:09;0.40;;;0.40;;
6551;SDS011;3309;48.708;9.290;2023-11-19T11:03:10;0.40;;;0.40;;
6551;SDS011;3309;48.708;9.290;2023-11-19T11:05:40;0.40;;;0.40;;
6551;SDS011;3309;48.708;9.290;2023-11-19T11:08:07;0.40;;;0.40;;
6551;SDS011;3309;48.708;9.290;2023-11-19T11:10:35;0.40;;;0.40;;
6551;SDS011;3309;48.708;9.290;2023-11-19T11:13:29;0.30;;;0.30;;
6551;SDS011;3309;48.708;9.290;2023-11-19T11:15:57;0.40;;;0.40;;
6551;SDS011;3309;48.708;9.290;2023-11-19T11:18:23;0.40;;;0.40;;
6551;SDS011;3309;48.708;9.290;2023-11-19T11:20:59;0.50;;;0.50;;
6551;SDS011;3309;48.708;9.290;2023-11-19T11:37:33;0.40;;;0.40;;
6551;SDS011;3309;48.708;9.290;2023-11-19T11:40:04;0.40;;;0.40;;
6551;SDS011;3309;48.708;9.290;2023-11-19T11:42:35;0.40;;;0.40;;
6551;SDS011;3309;48.708;9.290;2023-11-19T11:50:15;0.50;;;0.50;;
6551;SDS011;3309;48.708;9.290;2023-11-19T11:55:28;0.40;;;0.40;;
6551;SDS011;3309;48.708;9.290;2023-11-19T11:57:59;0.43;;;0.43;;
6551;SDS011;3309;48.708;9.290;2023-11-19T12:00:32;0.40;;;0.40;;
6551;SDS011;3309;48.708;9.290;2023-11-19T12:03:02;0.40;;;0.40;;
6551;SDS011;3309;48.708;9.290;2023-11-19T12:05:30;0.40;;;0.40;;
6551;SDS011;3309;48.708;9.290;2023-11-19T12:08:01;0.40;;;0.40;;
6551;SDS011;3309;48.708;9.290;2023-11-19T12:10:29;0.40;;;0.40;;
6551;SDS011;3309;48.708;9.290;2023-11-19T12:12:59;0.40;;;0.40;;
6551;SDS011;3309;48.708;9.290;2023-11-19T12:15:26;0.40;;;0.40;;
6551;SDS011;3309;48.708;9.290;2023-11-19T12:17:52;0.37;;;0.37;;
6551;SDS011;3309;48.708;9.290;2023-11-19T12:20:22;0.43;;;0.43;;
6551;SDS011;3309;48.708;9.290;2023-11-19T12:22:48;0.40;;;0.40;;
6551;SDS011;3309;48.708;9.290;2023-11-19T12:25:15;0.47;;;0.47;;
6551;SDS011;3309;48.708;9.290;2023-11-19T12:27:43;0.40;;;0.40;;
6551;SDS011;3309;48.708;9.290;2023-11-19T12:30:10;0.40;;;0.40;;
6551;SDS011;3309;48.708;9.290;2023-11-19T12:32:39;0.40;;;0.40;;
6551;SDS011;3309;48.708;9.290;2023-11-19T12:35:09;0.40;;;0.40;;
6551;SDS011;3309;48.708;9.290;2023-11-19T12:37:41;0.43;;;0.43;;
6551;SDS011;3309;48.708;9.290;2023-11-19T12:40:18;0.47;;;0.47;;
6551;SDS011;3309;48.708;9.290;2023-11-19T12:42:48;0.40;;;0.40;;
6551;SDS011;3309;48.708;9.290;2023-11-19T12:45:15;0.40;;;0.40;;
6551;SDS011;3309;48.708;9.290;2023-11-19T12:47:41;0.50;;;0.50;;
6551;SDS011;3309;48.708;9.290;2023-11-19T12:50:12;0.40;;;0.40;;
6551;SDS011;3309;48.708;9.290;2023-11-19T12:52:38;0.40;;;0.40;;
6551;SDS011;3309;48.708;9.290;2023-11-19T12:55:04;0.40;;;0.40;;
6551;SDS011;3309;48.708;9.290;2023-11-19T12:57:41;0.40;;;0.40;;
6551;SDS011;3309;48.708;9.290;2023-11-19T13:00:07;0.50;;;0.50;;
6551;SDS011;3309;48.708;9.290;2023-11-19T13:02:49;0.50;;;0.50;;
6551;SDS011;3309;48.708;9.290;2023-11-19T13:05:29;0.37;;;0.37;;
6551;SDS011;3309;48.708;9.290;2023-11-19T13:07:59;0.30;;;0.30;;
6551;SDS011;3309;48.708;9.290;2023-11-19T13:10:25;0.40;;;0.40;;
6551;SDS011;3309;48.708;9.290;2023-11-19T13:13:05;0.50;;;0.50;;
6551;SDS011;3309;48.708;9.290;2023-11-19T13:15:33;0.40;;;0.40;;
6551;SDS011;3309;48.708;9.290;2023-11-19T13:17:59;0.53;;;0.53;;
6551;SDS011;3309;48.708;9.290;2023-11-19T13:20:26;0.50;;;0.50;;
6551;SDS011;3309;48.708;9.290;2023-11-19T13:25:22;0.40;;;0.40;;
6551;SDS011;3309;48.708;9.290;2023-11-19T13:27:47;0.37;;;0.37;;
6551;SDS011;3309;48.708;9.290;2023-11-19T13:30:13;0.40;;;0.40;;
6551;SDS011;3309;48.708;9.290;2023-11-19T13:32:39;0.40;;;0.40;;
6551;SDS011;3309;48.708;9.290;2023-11-19T13:35:05;0.30;;;0.30;;
6551;SDS011;3309;48.708;9.290;2023-11-19T13:37:31;0.30;;;0.30;;
6551;SDS011;3309;48.708;9.290;2023-11-19T13:39:57;0.50;;;0.50;;
6551;SDS011;3309;48.708;9.290;2023-11-19T13:42:22;0.40;;;0.40;;
6551;SDS011;3309;48.708;9.290;2023-11-19T13:44:48;0.40;;;0.40;;
6551;SDS011;3309;48.708;9.290;2023-11-19T13:47:13;0.40;;;0.40;;
6551;SDS011;3309;48.708;9.290;2023-11-19T13:49:39;0.40;;;0.40;;
6551;SDS011;3309;48.708;9.290;2023-11-19T13:52:05;0.37;;;0.37;;
6551;SDS011;3309;48.708;9.290;2023-11-19T13:54:30;0.50;;;0.50;;
6551;SDS011;3309;48.708;9.290;2023-11-19T13:56:56;0.40;;;0.40;;
6551;SDS011;3309;48.708;9.290;2023-11-19T13:59:23;0.40;;;0.40;;
6551;SDS011;3309;48.708;9.290;2023-11-19T14:01:49;0.50;;;0.50;;
6551;SDS011;3309;48.708;9.290;2023-11-19T14:04:14;0.50;;;0.50;;
6551;SDS011;3309;48.708;9.290;2023-11-19T14:06:40;0.50;;;0.50;;
6551;SDS011;3309;48.708;9.290;2023-11-19T14:09:08;0.40;;;0.40;;
6551;SDS011;3309;48.708;9.290;2023-11-19T14:11:34;0.40;;;0.40;;
6551;SDS011;3309;48.708;9.290;2023-11-19T14:14:00;0.43;;;0.43;;
6551;SDS011;3309;48.708;9.290;2023-11-19T14:16:28;0.40;;;0.40;;
6551;SDS011;3309;48.708;9.290;2023-11-19T14:18:54;0.30;;;0.30;;
6551;SDS011;3309;48.708;9.290;2023-11-19T14:21:20;0.40;;;0.40;;
6551;SDS011;3309;48.708;9.290;2023-11-19T14:23:46;0.50;;;0.50;;
6551;SDS011;3309;48.708;9.290;2023-11-19T14:26:11;0.40;;;0.40;;
6551;SDS011;3309;48.708;9.290;2023-11-19T14:28:37;0.50;;;0.50;;
6551;SDS011;3309;48.708;9.290;2023-11-19T14:31:03;0.50;;;0.50;;
6551;SDS011;3309;48.708;9.290;2023-11-19T14:33:29;0.43;;;0.43;;
6551;SDS011;3309;48.708;9.290;2023-11-19T14:35:55;0.40;;;0.40;;
6551;SDS011;3309;48.708;9.290;2023-11-19T14:38:20;0.50;;;0.50;;
6551;SDS011;3309;48.708;9.290;2023-11-19T14:40:46;0.60;;;0.60;;
6551;SDS011;3309;48.708;9.290;2023-11-19T14:43:12;0.50;;;0.50;;
6551;SDS011;3309;48.708;9.290;2023-11-19T14:45:40;0.50;;;0.50;;
6551;SDS011;3309;48.708;9.290;2023-11-19T14:48:06;0.43;;;0.43;;
6551;SDS011;3309;48.708;9.290;2023-11-19T14:50:31;0.50;;;0.50;;
6551;SDS011;3309;48.708;9.290;2023-11-19T14:52:57;0.60;;;0.60;;
6551;SDS011;3309;48.708;9.290;2023-11-19T14:55:23;0.60;;;0.60;;
6551;SDS011;3309;48.708;9.290;2023-11-19T14:57:49;0.60;;;0.60;;
6551;SDS011;3309;48.708;9.290;2023-11-19T15:00:15;0.57;;;0.57;;
6551;SDS011;3309;48.708;9.290;2023-11-19T15:02:41;0.60;;;0.60;;
6551;SDS011;3309;48.708;9.290;2023-11-19T15:05:09;0.60;;;0.60;;
6551;SDS011;3309;48.708;9.290;2023-11-19T15:07:36;0.50;;;0.50;;
6551;SDS011;3309;48.708;9.290;2023-11-19T15:10:02;0.60;;;0.60;;
6551;SDS011;3309;48.708;9.290;2023-11-19T15:12:28;0.57;;;0.57;;
6551;SDS011;3309;48.708;9.290;2023-11-19T15:14:54;0.50;;;0.50;;
6551;SDS011;3309;48.708;9.290;2023-11-19T15:17:20;0.60;;;0.60;;
6551;SDS011;3309;48.708;9.290;2023-11-19T15:19:46;0.60;;;0.60;;
6551;SDS011;3309;48.708;9.290;2023-11-19T15:22:13;0.60;;;0.60;;
6551;SDS011;3309;48.708;9.290;2023-11-19T15:24:39;0.60;;;0.60;;
6551;SDS011;3309;48.708;9.290;2023-11-19T15:27:06;0.60;;;0.60;;
6551;SDS011;3309;48.708;9.290;2023-11-19T15:29:34;0.60;;;0.60;;
6551;SDS011;3309;48.708;9.290;2023-11-19T15:31:59;0.50;;;0.50;;
6551;SDS011;3309;48.708;9.290;2023-11-19T15:34:25;0.40;;;0.40;;
6551;SDS011;3309;48.708;9.290;2023-11-19T15:36:50;0.60;;;0.60;;
6551;SDS011;3309;48.708;9.290;2023-11-19T15:39:16;0.50;;;0.50;;
6551;SDS011;3309;48.708;9.290;2023-11-19T15:41:42;0.67;;;0.67;;